Flight Track Log - Related Links

Times and Time Zones

All times are in EDT time to prevent confusion due to time zone crossing. See the SWA2383 flight status page for this flight to view local times or setup timezone preferences in your user account.

Time Position Orientation Groundspeed Altitude Reporting Facility
EDT Latitude Longitude Course Direction KTS MPH feet Rate Location/Type
Fri 09:35:37 PM 29.6331 -95.2631 14° North 139 160 1,200  Level Houston Center
Fri 09:36:13 PM 29.6544 -95.2464 34° Northeast 242 278 1,900 2,103 Climbing Houston Center
Fri 09:37:14 PM 29.7194 -95.2581 351° North 228 262 4,600 2,951 Climbing Houston Center
Fri 09:38:15 PM 29.7964 -95.2694 353° North 270 311 7,900 3,124 Climbing Houston Center
Fri 09:39:15 PM 29.8764 -95.2494 12° North 288 331 10,900 3,000 Climbing Houston Center
Fri 09:40:17 PM 29.9686 -95.2272 12° North 333 383 14,000 3,344 Climbing Houston Center
Fri 09:41:00 PM 30.3072 -95.2003 14° North  Level FlightAware Approximate
Fri 09:41:17 PM 30.0669 -95.2033 12° North 358 412 17,700  Level Houston Center
Fri 09:42:18 PM 30.1672 -95.1783 12° North 367 422 20,500 2,607 Climbing Houston Center
Fri 09:43:19 PM 30.2756 -95.1525 12° North 395 455 23,000 2,656 Climbing Houston Center
Fri 09:44:20 PM 30.3892 -95.1236 12° North 414 476 25,900 2,607 Climbing Houston Center
Fri 09:45:21 PM 30.5156 -95.0928 12° North 416 479 28,300 1,967 Climbing Houston Center
Fri 09:46:22 PM 30.6322 -95.0492 18° North 443 510 29,900 1,537 Climbing Houston Center
Fri 09:47:22 PM 30.7481 -94.9758 29° Northeast 470 541 31,400 2,132 Climbing Houston Center
Fri 09:48:23 PM 30.8650 -94.9036 28° Northeast 475 547 34,200 2,410 Climbing Houston Center
Fri 09:49:24 PM 30.9764 -94.8339 28° Northeast 459 528 36,300 1,770 Climbing Houston Center
Fri 09:50:25 PM 31.0872 -94.7642 28° Northeast 450 518 37,800 1,279 Climbing Houston Center
Fri 09:51:26 PM 31.1983 -94.6939 28° Northeast 465 535 38,900 836 Climbing Houston Center
Fri 09:52:27 PM 31.3069 -94.6158 32° Northeast 469 540 39,500 1,033 Climbing Houston Center
Fri 09:53:28 PM 31.4358 -94.5281 30° Northeast 454 522 41,000 744 Climbing Houston Center
Fri 09:54:28 PM 31.5428 -94.4531 31° Northeast 451 519 41,000  Level Houston Center
Fri 09:55:29 PM 31.6503 -94.3758 31° Northeast 452 520 41,000  Level Houston Center
Fri 09:56:30 PM 31.7581 -94.2978 32° Northeast 454 522 41,000  Level Houston Center
Fri 09:57:31 PM 31.8658 -94.2197 32° Northeast 454 522 41,000  Level Houston Center
Fri 09:58:11 PM 31.9297 -94.1750 31° Northeast 448 516 41,000  Level Fort Worth Center
Fri 09:59:11 PM 32.0381 -94.0953 32° Northeast 448 516 41,000  Level Fort Worth Center
Fri 10:00:11 PM 32.1447 -94.0178 32° Northeast 443 510 41,000  Level Fort Worth Center
Fri 10:01:11 PM 32.2569 -93.9300 33° Northeast 443 510 41,000  Level Fort Worth Center
Fri 10:02:11 PM 32.3633 -93.8497 33° Northeast 443 510 41,000  Level Fort Worth Center
Fri 10:03:11 PM 32.4678 -93.7742 31° Northeast 443 510 41,000  Level Fort Worth Center
Fri 10:04:11 PM 32.5739 -93.6936 33° Northeast 443 510 41,000  Level Fort Worth Center
Fri 10:05:11 PM 32.6800 -93.6175 31° Northeast 443 510 41,000  Level Fort Worth Center
Fri 10:06:11 PM 32.7883 -93.5389 31° Northeast 443 510 41,000  Level Fort Worth Center
Fri 10:07:11 PM 32.8922 -93.4600 33° Northeast 443 510 41,000  Level Fort Worth Center
Fri 10:08:11 PM 33.0006 -93.3811 31° Northeast 443 510 41,000  Level Fort Worth Center
Fri 10:09:11 PM 33.1086 -93.3017 32° Northeast 443 510 41,000  Level Fort Worth Center
Fri 10:11:38 PM 33.3661 -93.1106 32° Northeast 458 527 41,000  Level Memphis Center
Fri 10:12:38 PM 33.4722 -93.0294 33° Northeast 458 527 41,000  Level Memphis Center
Fri 10:13:38 PM 33.5825 -92.9481 32° Northeast 458 527 41,000  Level Memphis Center
Fri 10:14:38 PM 33.6906 -92.8636 33° Northeast 458 527 41,000  Level Memphis Center
Fri 10:15:38 PM 33.7986 -92.7819 32° Northeast 463 533 41,000  Level Memphis Center
Fri 10:16:38 PM 33.9131 -92.6975 31° Northeast 463 533 41,000  Level Memphis Center
Fri 10:17:38 PM 34.0208 -92.6153 32° Northeast 463 533 41,000  Level Memphis Center
Fri 10:18:38 PM 34.1269 -92.5250 35° Northeast 458 527 41,000  Level Memphis Center
Fri 10:19:38 PM 34.2367 -92.4425 32° Northeast 458 527 41,000  Level Memphis Center
Fri 10:20:38 PM 34.3467 -92.3594 32° Northeast 464 534 41,000  Level Memphis Center
Fri 10:21:38 PM 34.4586 -92.2689 34° Northeast 464 534 41,000  Level Memphis Center
Fri 10:22:38 PM 34.5664 -92.1831 33° Northeast 464 534 41,000  Level Memphis Center
Fri 10:23:38 PM 34.6781 -92.0972 32° Northeast 464 534 41,000  Level Memphis Center
Fri 10:24:38 PM 34.7878 -92.0108 33° Northeast 464 534 41,000  Level Memphis Center
Fri 10:25:38 PM 34.8975 -91.9244 33° Northeast 464 534 41,000  Level Memphis Center
Fri 10:26:38 PM 35.0133 -91.8353 32° Northeast 470 541 41,000  Level Memphis Center
Fri 10:27:38 PM 35.1228 -91.7483 33° Northeast 470 541 41,000  Level Memphis Center
Fri 10:28:38 PM 35.2322 -91.6611 33° Northeast 470 541 41,000  Level Memphis Center
Fri 10:29:38 PM 35.3436 -91.5739 33° Northeast 465 535 41,000  Level Memphis Center
Fri 10:30:38 PM 35.4569 -91.4836 33° Northeast 465 535 41,000  Level Memphis Center
Fri 10:31:38 PM 35.5811 -91.3858 33° Northeast 471 542 41,000  Level Memphis Center
Fri 10:32:38 PM 35.6817 -91.3053 33° Northeast 476 548 41,000  Level Memphis Center
Fri 10:33:38 PM 35.7950 -91.2092 35° Northeast 471 542 41,000  Level Memphis Center
Fri 10:34:38 PM 35.9164 -91.1517 21° North 461 531 41,000  Level Memphis Center
Fri 10:35:38 PM 36.0439 -91.0964 19° North 466 536 41,000  Level Memphis Center
Fri 10:36:38 PM 36.1672 -91.0358 22° Northeast 471 542 41,000  Level Memphis Center
Fri 10:37:38 PM 36.2906 -90.9775 21° North 471 542 41,000 -250 Level Memphis Center
Fri 10:38:38 PM 36.4139 -90.9192 21° North 471 542 40,500 -750 Descending Memphis Center
Fri 10:39:38 PM 36.5369 -90.8581 22° Northeast 471 542 39,500 -1,000 Descending Memphis Center
Fri 10:40:38 PM 36.6664 -90.7967 21° North 476 548 38,500 -1,250 Descending Memphis Center
Fri 10:41:38 PM 36.8000 -90.7325 21° North 493 567 37,000 -904 Descending Memphis Center
Fri 10:43:04 PM 36.9919 -90.6350 22° Northeast 520 598 36,300 -822 Descending Kansas City Center
Fri 10:44:04 PM 37.1394 -90.5622 21° North 547 629 35,000 -645 Descending Kansas City Center
Fri 10:45:05 PM 37.2808 -90.4933 21° North 546 628 35,000 -639 Level Kansas City Center
Fri 10:46:06 PM 37.4053 -90.4306 22° Northeast 545 627 33,700 -1,983 Descending Kansas City Center
Fri 10:47:06 PM 37.5469 -90.3594 22° Northeast 548 631 31,000 -2,529 Descending Kansas City Center
Fri 10:48:07 PM 37.6800 -90.2922 22° Northeast 527 606 28,600 -3,344 Descending Kansas City Center
Fri 10:49:08 PM 37.8331 -90.2139 22° Northeast 502 578 24,200 -3,967 Descending Kansas City Center
Fri 10:50:08 PM 37.9564 -90.1564 20° North 479 551 20,600 -3,570 Descending Kansas City Center
Fri 10:51:09 PM 38.0714 -90.0992 21° North 450 518 17,000 -2,508 Descending Kansas City Center
Fri 10:52:10 PM 38.1769 -90.1194 351° North 398 458 15,500 -1,190 Descending Kansas City Center
Fri 10:53:10 PM 38.2678 -90.1800 332° Northwest 372 428 14,600 -1,041 Descending Kansas City Center
Fri 10:54:11 PM 38.3553 -90.2386 332° Northwest 360 414 13,400 -1,525 Descending Kansas City Center
Fri 10:55:12 PM 38.4342 -90.2894 333° Northwest 352 405 11,500 -1,587 Descending Kansas City Center
Fri 10:56:12 PM 38.5153 -90.3444 332° Northwest 338 389 10,200 -1,240 Descending Kansas City Center
Fri 10:57:13 PM 38.5906 -90.3964 332° Northwest 294 338 9,000 -1,339 Descending Kansas City Center
Fri 10:58:13 PM 38.6611 -90.4436 332° Northwest 282 325 7,500 -1,869 Descending Kansas City Center
Fri 10:59:15 PM 38.7206 -90.4839 332° Northwest 242 278 5,200 -2,182 Descending Kansas City Center
Fri 11:00:14 PM 38.7769 -90.5142 337° Northwest 234 269 3,100 -1,500 Descending Kansas City Center
Fri 11:01:15 PM 38.7967 -90.4664 62° Northeast 190 219 2,200 -738 Descending Kansas City Center
Fri 11:02:16 PM 38.7789 -90.4297 122° Southeast 142 163 1,600 -645 Descending Kansas City Center
Fri 11:03:16 PM 38.7611 -90.3939 122° Southeast 126 145 900 -496 Descending Kansas City Center
Fri 11:04:17 PM 38.7444 -90.3597 122° Southeast 124 143 600 -295 Descending Kansas City Center

Login

Don't have an account? Register now (free) for customized features, flight alerts, and more!